KSYR/SYR METAR and TAF weather

Enter ICAO airport designator
Station Type Date Time Source
KSYR METAR 2022/06/30 12:54 UTC NOAA

KSYR 301254Z 00000KT 10SM SCT150 BKN180 BKN250 19/13 A3024 RMK AO2 SLP235 T01890133


Station Type Date Time Source
KSYR Decoded METAR 2022/06/30 12:54 UTC NOAA

SYRACUSE HANCOCK INTERNATIONAL AIRPORT , NY, United States (KSYR) 43-07N 76-06W 127M
Jun 30, 2022 - 08:54 AM EDT / 2022.06.30 1254 UTC
Wind: Calm:0
Visibility: 10 mile(s):0
Sky conditions: mostly cloudy
Temperature: 66.0 F (18.9 C)
Dew Point: 55.9 F (13.3 C)
Relative Humidity: 69%
Pressure (altimeter): 30.24 in. Hg (1024 hPa)
ob: KSYR 301254Z 00000KT 10SM SCT150 BKN180 BKN250 19/13 A3024 RMK AO2 SLP235 T01890133
cycle: 13

Station Type Date Time Source
KSYR TAF 2022/06/30 12:48 UTC NOAA

TAF KSYR 301145Z 3012/0112 VRB03KT P6SM FEW050 SCT070 BKN250
FM301600 26007KT P6SM FEW060 BKN180

Example: see airport list